MET'MAP v2.0
soon released !

Expected late october,
this new version will be
more efficient, smarter,
and hosted on a brand new
server x3 powerfull...
...and still free !


Not compatible ?
Try the mobile version !

LOG IN : | Subscribe | Disclaimer | Who is Orbifly ? |
ICAO code :

TAF - LDZD Zadar - 18 Feb 2020 04:36 UTC - Data Source NOAA   


- Airport Elevation : 289 ft
- IATA code : ZAD
- No reported NOTAMs.


LDZD - Zadar

Latest METAR recorded : 2015/08/11 08:00 LDZD 110800Z 23010KT 190V280 9999 FEW033 26/20 Q1013 NOSIG
TAF TAF LDZD
Valid from the 18 at 00:00 until the 19 at 00:00 UTC


172325Z 1800/1900 VRB02KT 4000 BR NSC TX15/1812Z TN04/1800Z
TEMPO 1800/1807 0400 BCFG
BECMG 1807/1809 CAVOK
BECMG 1810/1812 31010KT
BECMG 1816/1818 04008KT

Source NOAA


MET'MAP, your aeronautical weather chart ! - Copyright ORBIFLY December 2007

Programming & Development : Alexandra Zaïnal
Co-Developer : Marc-Olivier Méhu
Technical & hardware support : Manuel Goepfert
Concept & Financing : Baudouin d'Aumeries